Time;durP1;ratioP1;P1;durP2;ratioP2;P2;SDS_P1;SDS_P2;PMS_P1;PMS_P2;Temp;Humidity;BMP_temperature;BMP_pressure;BME280_temperature;BME280_humidity;BME280_pressure;Samples;Min_cycle;Max_cycle;Signal;HPM_P1;HPM_P2
2022/03/14 00:01:06;;;;;;;2.35;1.92;;;;;;;12.94;62.15;101550.91;5052862;28;20080;-45
2022/03/14 00:03:47;;;;;;;2.28;2.03;;;;;;;12.90;62.95;101547.06;5048507;28;20055;-44
2022/03/14 00:06:16;;;;;;;2.97;2.42;;;;;;;12.91;62.79;101551.44;5073226;28;20051;-44
2022/03/14 00:08:45;;;;;;;2.85;2.30;;;;;;;12.88;63.32;101550.06;5071990;28;20063;-44
2022/03/14 00:11:15;;;;;;;2.70;2.20;;;;;;;12.89;62.69;101556.34;5073088;28;20469;-43
2022/03/14 00:13:46;;;;;;;4.70;2.30;;;;;;;12.90;62.74;101566.22;5070159;28;20036;-44
2022/03/14 00:16:23;;;;;;;2.88;2.17;;;;;;;12.91;63.21;101565.13;5055600;28;20076;-45
2022/03/14 00:18:53;;;;;;;4.15;2.47;;;;;;;12.88;63.04;101579.31;5052094;28;20041;-44
2022/03/14 00:21:25;;;;;;;2.70;2.05;;;;;;;12.86;63.51;101579.59;5055398;28;20041;-43
2022/03/14 00:23:54;;;;;;;2.55;2.10;;;;;;;12.84;63.04;101570.00;5037324;28;20081;-46
2022/03/14 00:26:24;;;;;;;2.67;2.22;;;;;;;12.82;63.51;101577.63;5035489;28;20053;-45
2022/03/14 00:28:52;;;;;;;3.45;2.40;;;;;;;12.87;62.92;101578.50;5054831;28;20051;-48
2022/03/14 00:31:21;;;;;;;2.50;2.10;;;;;;;12.87;62.87;101588.59;5072762;28;20050;-48
2022/03/14 00:33:50;;;;;;;2.67;2.13;;;;;;;12.84;62.93;101586.41;5041580;28;20067;-47
2022/03/14 00:36:19;;;;;;;2.20;2.00;;;;;;;12.83;63.02;101584.78;5071296;28;20047;-45
2022/03/14 00:38:48;;;;;;;2.65;2.25;;;;;;;12.78;63.58;101588.28;5072986;28;20045;-44
2022/03/14 00:41:16;;;;;;;2.47;2.20;;;;;;;12.75;63.32;101589.66;5057075;28;20041;-42
2022/03/14 00:43:45;;;;;;;2.58;2.20;;;;;;;12.78;63.50;101599.22;5050941;28;20051;-42
2022/03/14 00:46:17;;;;;;;3.45;2.22;;;;;;;12.78;62.62;101602.78;5052564;28;20044;-43
2022/03/14 00:48:47;;;;;;;3.45;2.10;;;;;;;12.76;62.78;101607.69;5052644;28;20041;-44
2022/03/14 00:51:15;;;;;;;3.25;2.42;;;;;;;12.78;63.38;101611.00;5064360;28;20045;-44
2022/03/14 00:53:43;;;;;;;2.70;2.05;;;;;;;12.77;63.15;101608.50;5053542;28;20060;-43
2022/03/14 00:56:12;;;;;;;2.63;2.30;;;;;;;12.74;63.05;101609.84;5054768;28;20382;-43
2022/03/14 00:58:40;;;;;;;2.42;2.08;;;;;;;12.77;62.75;101609.34;5072608;28;20040;-42
2022/03/14 01:01:09;;;;;;;2.40;2.20;;;;;;;12.73;63.20;101615.63;5071599;28;20131;-41
2022/03/14 01:03:37;;;;;;;3.00;2.35;;;;;;;12.69;63.11;101623.50;5071897;28;20094;-42
2022/03/14 01:06:05;;;;;;;4.25;2.35;;;;;;;12.67;63.74;101622.94;5072464;28;20040;-41
2022/03/14 01:08:33;;;;;;;2.35;2.15;;;;;;;12.66;63.54;101623.22;5071997;28;20388;-41
2022/03/14 01:11:01;;;;;;;2.40;2.20;;;;;;;12.65;62.71;101625.13;5063690;28;20052;-41
2022/03/14 01:13:29;;;;;;;2.13;1.98;;;;;;;12.61;62.83;101632.19;5066483;28;20439;-41
2022/03/14 01:15:59;;;;;;;2.53;2.00;;;;;;;12.60;63.12;101636.00;5034584;28;20073;-40
2022/03/14 01:18:27;;;;;;;3.03;2.20;;;;;;;12.58;63.30;101638.19;5034671;28;20043;-41
2022/03/14 01:20:55;;;;;;;2.25;2.05;;;;;;;12.58;63.39;101640.94;5051838;28;20045;-42
2022/03/14 01:23:23;;;;;;;2.50;2.30;;;;;;;12.56;64.56;101645.84;5072002;28;20051;-42
2022/03/14 01:25:51;;;;;;;3.35;2.30;;;;;;;12.58;64.04;101646.41;5075673;28;20050;-41
2022/03/14 01:28:19;;;;;;;2.95;2.28;;;;;;;12.59;63.75;101645.31;5057878;28;20119;-41
2022/03/14 01:30:47;;;;;;;2.53;2.33;;;;;;;12.59;63.60;101653.50;5075928;28;20131;-41
2022/03/14 01:33:15;;;;;;;2.17;1.92;;;;;;;12.61;63.67;101645.88;5058423;28;20048;-41
2022/03/14 01:35:44;;;;;;;2.80;2.13;;;;;;;12.57;63.87;101648.28;5055551;28;20048;-42
2022/03/14 01:38:14;;;;;;;2.53;2.25;;;;;;;12.60;63.93;101641.47;5055874;28;20091;-43
2022/03/14 01:40:42;;;;;;;2.20;2.00;;;;;;;12.59;63.50;101650.78;5038423;28;20041;-44
2022/03/14 01:43:10;;;;;;;3.42;2.35;;;;;;;12.59;63.84;101650.78;5075451;28;20056;-44
2022/03/14 01:45:37;;;;;;;2.15;1.95;;;;;;;12.62;63.86;101654.91;5075762;28;20049;-43
2022/03/14 01:48:06;;;;;;;3.17;2.40;;;;;;;12.61;63.62;101656.81;5058086;28;20041;-44
2022/03/14 01:50:34;;;;;;;3.72;2.28;;;;;;;12.60;64.12;101657.88;5075089;28;20136;-44
2022/03/14 01:53:02;;;;;;;2.45;2.10;;;;;;;12.66;63.92;101656.84;5055399;28;20152;-43
2022/03/14 01:55:30;;;;;;;3.33;2.30;;;;;;;12.65;64.01;101654.34;5047523;28;20051;-43
2022/03/14 01:57:58;;;;;;;3.40;2.45;;;;;;;12.55;64.23;101661.41;5056067;28;20048;-43
2022/03/14 02:00:28;;;;;;;2.53;2.10;;;;;;;12.55;64.56;101661.41;5054587;28;20041;-40
2022/03/14 02:03:06;;;;;;;2.92;2.33;;;;;;;12.57;64.62;101666.59;5053845;28;20502;-44
2022/03/14 02:05:37;;;;;;;3.63;2.45;;;;;;;12.57;64.54;101667.44;5075146;28;20491;-43
2022/03/14 02:08:08;;;;;;;2.55;2.25;;;;;;;12.55;64.70;101668.78;5073729;28;20044;-45
2022/03/14 02:10:38;;;;;;;2.90;2.40;;;;;;;12.53;64.78;101669.06;5074813;28;20536;-42
2022/03/14 02:13:09;;;;;;;3.05;2.55;;;;;;;12.51;64.16;101659.47;5066993;28;20049;-45
2022/03/14 02:15:38;;;;;;;3.05;2.42;;;;;;;12.50;64.86;101675.03;5075042;28;20048;-44
2022/03/14 02:18:09;;;;;;;2.50;2.28;;;;;;;12.51;64.71;101670.41;5074784;28;20063;-46
2022/03/14 02:20:36;;;;;;;3.10;2.53;;;;;;;12.54;64.28;101669.88;5068691;28;20064;-41
2022/03/14 02:23:04;;;;;;;3.53;2.47;;;;;;;12.51;64.78;101676.69;5057831;28;20044;-41
2022/03/14 02:25:35;;;;;;;2.72;2.20;;;;;;;12.50;65.29;101679.66;5065296;28;20071;-41
2022/03/14 02:28:03;;;;;;;3.80;2.50;;;;;;;12.48;64.98;101681.84;5074530;28;20071;-41
2022/03/14 02:30:31;;;;;;;2.83;2.40;;;;;;;12.46;64.58;101684.00;5072815;28;20403;-43
2022/03/14 02:33:00;;;;;;;2.30;2.10;;;;;;;12.44;65.53;101689.75;5062273;28;20052;-44
2022/03/14 02:35:27;;;;;;;2.40;2.20;;;;;;;12.43;65.13;101690.00;5036488;28;20427;-46
2022/03/14 02:37:55;;;;;;;4.13;2.50;;;;;;;12.46;65.58;101694.94;5054509;28;20498;-45
2022/03/14 02:40:23;;;;;;;3.83;2.50;;;;;;;12.44;65.81;101691.66;5055313;28;20116;-44
2022/03/14 02:42:51;;;;;;;2.70;2.10;;;;;;;12.44;65.89;101694.38;5061786;28;20051;-45
2022/03/14 02:45:19;;;;;;;2.38;1.98;;;;;;;12.43;66.01;101696.28;5061959;28;20041;-44
2022/03/14 02:47:47;;;;;;;3.17;2.60;;;;;;;12.41;65.32;101697.63;5054368;28;20053;-47
2022/03/14 02:50:14;;;;;;;2.30;2.10;;;;;;;12.42;65.84;101705.56;5037267;28;20045;-45
2022/03/14 02:52:48;;;;;;;4.35;2.50;;;;;;;12.37;66.53;101713.72;5067174;28;20032;-47
2022/03/14 02:55:17;;;;;;;2.42;2.20;;;;;;;12.39;66.61;101710.72;5066059;28;20037;-45
2022/03/14 02:57:45;;;;;;;3.03;2.40;;;;;;;12.39;66.46;101710.72;5054154;28;20052;-44
2022/03/14 03:00:13;;;;;;;3.17;2.70;;;;;;;12.35;66.92;101710.41;5052747;28;20047;-44
2022/03/14 03:02:42;;;;;;;4.95;2.80;;;;;;;12.32;67.21;101714.50;5037661;28;20119;-43
2022/03/14 03:05:10;;;;;;;3.25;2.55;;;;;;;12.29;66.95;101715.00;5035984;28;20056;-45
2022/03/14 03:07:39;;;;;;;3.67;2.45;;;;;;;12.29;66.81;101716.91;5053931;28;20467;-44
2022/03/14 03:10:08;;;;;;;4.30;2.80;;;;;;;12.27;66.73;101721.81;5069293;28;20053;-46
2022/03/14 03:12:40;;;;;;;3.20;2.60;;;;;;;12.24;67.05;101725.91;5051794;28;20495;-46
2022/03/14 03:15:09;;;;;;;3.53;2.53;;;;;;;12.24;67.74;101734.09;5055483;28;20123;-46
2022/03/14 03:17:36;;;;;;;4.10;2.60;;;;;;;12.23;67.56;101732.44;5072258;28;20518;-46
2022/03/14 03:20:04;;;;;;;5.15;2.55;;;;;;;12.23;67.48;101735.16;5055929;28;20045;-46
2022/03/14 03:22:32;;;;;;;3.20;2.30;;;;;;;12.25;66.91;101738.47;5062424;28;20047;-43
2022/03/14 03:25:00;;;;;;;3.78;2.55;;;;;;;12.25;67.61;101743.09;5055656;28;20048;-47
2022/03/14 03:27:27;;;;;;;3.30;2.63;;;;;;;12.18;66.89;101746.03;5073685;28;20052;-46
2022/03/14 03:29:55;;;;;;;3.25;2.72;;;;;;;12.16;67.54;101756.38;5071840;28;20040;-46
2022/03/14 03:32:22;;;;;;;3.40;2.75;;;;;;;12.13;67.59;101768.66;5051568;28;20047;-45
2022/03/14 03:34:50;;;;;;;3.40;2.58;;;;;;;12.12;67.80;101766.16;5035225;28;20041;-46
2022/03/14 03:37:20;;;;;;;5.07;2.88;;;;;;;12.09;68.32;101769.41;5037126;28;20049;-47
2022/03/14 03:39:48;;;;;;;2.45;2.25;;;;;;;12.07;67.68;101782.50;5051298;28;20488;-45
2022/03/14 03:42:16;;;;;;;3.08;2.50;;;;;;;12.04;67.60;101783.84;5035816;28;20045;-46
2022/03/14 03:44:44;;;;;;;2.95;2.20;;;;;;;12.04;68.04;101792.03;5053071;28;20049;-45
2022/03/14 03:47:11;;;;;;;3.63;2.50;;;;;;;12.04;68.74;101802.13;5052969;28;20051;-45
2022/03/14 03:49:39;;;;;;;3.25;2.75;;;;;;;12.04;68.81;101807.59;5063188;28;20040;-44
2022/03/14 03:52:07;;;;;;;3.75;2.72;;;;;;;12.01;68.30;101798.00;5073259;28;20494;-45
2022/03/14 03:54:35;;;;;;;3.10;2.45;;;;;;;12.01;68.61;101803.47;5073299;28;20059;-45
2022/03/14 03:57:03;;;;;;;2.80;2.50;;;;;;;12.01;68.71;101813.59;5051047;28;20488;-44
2022/03/14 03:59:30;;;;;;;2.55;2.35;;;;;;;12.00;68.07;101817.38;5056084;28;20078;-46
2022/03/14 04:01:59;;;;;;;3.90;2.60;;;;;;;11.98;68.52;101816.78;5058129;28;20076;-46
2022/03/14 04:04:28;;;;;;;2.88;2.38;;;;;;;11.96;68.46;101828.00;5035777;28;20128;-45
2022/03/14 04:06:57;;;;;;;3.67;2.53;;;;;;;11.93;68.39;101832.06;5034926;28;20513;-44
2022/03/14 04:09:28;;;;;;;3.72;2.70;;;;;;;11.93;68.46;101842.97;5052854;28;20553;-43
2022/03/14 04:11:55;;;;;;;3.97;2.65;;;;;;;11.90;69.13;101850.84;5053018;28;20049;-47
2022/03/14 04:14:23;;;;;;;2.63;2.03;;;;;;;11.88;68.65;101848.38;5066343;28;20040;-46
2022/03/14 04:16:50;;;;;;;3.83;2.60;;;;;;;11.81;69.66;101847.69;5072668;28;20071;-46
2022/03/14 04:19:18;;;;;;;3.50;2.60;;;;;;;11.77;69.65;101849.25;5066388;28;20091;-46
2022/03/14 04:21:48;;;;;;;3.78;2.72;;;;;;;11.75;70.58;101854.16;5063316;28;20494;-48
2022/03/14 04:24:16;;;;;;;3.95;2.45;;;;;;;11.75;70.32;101859.59;5072970;28;20049;-47
2022/03/14 04:26:45;;;;;;;4.40;2.70;;;;;;;11.76;70.45;101872.19;5043330;28;20090;-45
2022/03/14 04:29:14;;;;;;;3.65;2.45;;;;;;;11.79;70.72;101874.41;5064016;28;20050;-44
2022/03/14 04:31:42;;;;;;;4.68;2.70;;;;;;;11.73;71.30;101878.13;5072753;28;20402;-46
2022/03/14 04:34:10;;;;;;;3.00;2.67;;;;;;;11.69;71.34;101877.81;5041115;28;20057;-44
2022/03/14 04:36:37;;;;;;;4.47;2.83;;;;;;;11.65;72.22;101886.75;5052784;28;20123;-45
2022/03/14 04:39:05;;;;;;;4.22;2.88;;;;;;;11.63;71.40;101888.91;5059313;28;20037;-43
2022/03/14 04:41:35;;;;;;;4.00;3.00;;;;;;;11.61;72.27;101885.59;5052696;28;20407;-47
2022/03/14 04:44:03;;;;;;;3.97;3.00;;;;;;;11.60;72.60;101889.41;5052518;28;20052;-47
2022/03/14 04:46:31;;;;;;;2.25;2.05;;;;;;;11.61;71.80;101891.88;5052744;28;20049;-46
2022/03/14 04:48:59;;;;;;;4.18;2.90;;;;;;;11.58;72.22;101903.28;5063657;28;20037;-44
2022/03/14 04:51:27;;;;;;;4.10;2.80;;;;;;;11.55;72.57;101908.44;5057826;28;20431;-45
2022/03/14 04:53:55;;;;;;;4.55;2.70;;;;;;;11.56;72.71;101910.09;5052500;28;20037;-43
2022/03/14 04:56:22;;;;;;;5.80;2.95;;;;;;;11.52;73.35;101912.50;5034570;28;20045;-48
2022/03/14 04:58:51;;;;;;;4.22;3.10;;;;;;;11.47;73.57;101912.38;5042558;28;20041;-45
2022/03/14 05:01:20;;;;;;;3.67;2.88;;;;;;;11.43;73.42;101919.44;5076245;28;20055;-45
2022/03/14 05:03:48;;;;;;;3.00;2.70;;;;;;;11.40;74.01;101928.09;5074748;28;20045;-46
2022/03/14 05:06:16;;;;;;;5.78;3.47;;;;;;;11.41;73.42;101935.22;5059554;28;20410;-45
2022/03/14 05:08:44;;;;;;;4.78;2.92;;;;;;;11.36;74.25;101941.41;5076418;28;20075;-46
2022/03/14 05:11:13;;;;;;;5.60;3.40;;;;;;;11.36;74.81;101946.03;5053404;28;20059;-48
2022/03/14 05:13:41;;;;;;;4.70;3.20;;;;;;;11.41;74.02;101946.94;5054313;28;20040;-45
2022/03/14 05:16:09;;;;;;;5.70;3.70;;;;;;;11.41;73.97;101957.06;5044219;28;20041;-47
2022/03/14 05:18:38;;;;;;;4.75;3.65;;;;;;;11.36;74.36;101955.06;5056132;28;20467;-48
2022/03/14 05:21:06;;;;;;;6.35;3.72;;;;;;;11.28;74.97;101958.16;5071564;28;20403;-47
2022/03/14 05:23:34;;;;;;;5.53;3.47;;;;;;;11.24;75.20;101965.19;5057741;28;20040;-48
2022/03/14 05:26:02;;;;;;;5.25;3.33;;;;;;;11.22;75.46;101978.25;5075575;28;20048;-47
2022/03/14 05:28:29;;;;;;;6.13;3.80;;;;;;;11.16;75.64;101973.75;5056046;28;20033;-46
2022/03/14 05:30:57;;;;;;;6.72;4.00;;;;;;;11.15;75.71;101985.75;5055579;28;20041;-46
2022/03/14 05:33:25;;;;;;;6.97;3.95;;;;;;;11.18;76.16;101985.25;5037792;28;20072;-47
2022/03/14 05:35:54;;;;;;;6.90;3.00;;;;;;;11.27;75.24;101986.53;5055338;28;20500;-47
2022/03/14 05:38:22;;;;;;;5.00;3.47;;;;;;;11.25;75.41;102002.31;5055518;28;20055;-45
2022/03/14 05:40:52;;;;;;;8.27;4.00;;;;;;;11.56;74.28;102005.63;5057520;28;20041;-46
2022/03/14 05:43:21;;;;;;;9.20;3.80;;;;;;;11.40;75.03;102002.63;5021598;28;20045;-46
2022/03/14 05:45:48;;;;;;;4.95;3.47;;;;;;;11.40;74.56;102010.81;5055480;28;20480;-46
2022/03/14 05:48:16;;;;;;;8.38;3.80;;;;;;;11.37;75.02;102019.47;5055344;28;20403;-47
2022/03/14 05:50:44;;;;;;;4.22;3.15;;;;;;;11.40;74.50;102015.41;5055379;28;20033;-46
2022/03/14 05:53:12;;;;;;;5.38;3.17;;;;;;;11.40;74.48;102020.88;5056223;28;20037;-46
2022/03/14 05:55:40;;;;;;;7.85;3.65;;;;;;;11.41;74.72;102022.53;5037446;28;20036;-44
2022/03/14 05:58:07;;;;;;;6.53;3.80;;;;;;;11.34;74.16;102039.06;5065611;28;20044;-45
2022/03/14 06:00:36;;;;;;;6.18;3.08;;;;;;;11.40;74.39;102040.81;5055292;28;20120;-46
2022/03/14 06:03:04;;;;;;;5.65;3.78;;;;;;;11.40;74.66;102045.44;4354708;28;10000840;-46
2022/03/14 06:05:32;;;;;;;4.10;3.17;;;;;;;11.27;74.54;102044.66;5052506;28;20070;-46
2022/03/14 06:07:59;;;;;;;5.97;3.80;;;;;;;11.23;74.98;102042.63;5051776;28;20898;-44
2022/03/14 06:10:27;;;;;;;8.70;4.20;;;;;;;11.20;75.03;102048.59;5050436;28;20053;-47
2022/03/14 06:12:55;;;;;;;6.82;4.10;;;;;;;11.14;75.88;102052.31;5067330;28;20442;-42
2022/03/14 06:15:22;;;;;;;8.45;4.30;;;;;;;11.21;75.38;102055.72;5051357;28;20045;-46
2022/03/14 06:17:50;;;;;;;9.55;5.00;;;;;;;11.15;75.88;102057.50;5054170;28;20121;-46
2022/03/14 06:20:18;;;;;;;5.47;3.25;;;;;;;11.15;75.38;102068.41;5051316;28;20052;-43
2022/03/14 06:22:46;;;;;;;8.13;4.10;;;;;;;11.13;76.04;102064.25;5051140;28;20047;-42
2022/03/14 06:25:17;;;;;;;8.98;4.95;;;;;;;11.07;76.18;102069.63;5033469;28;20087;-45
2022/03/14 06:27:45;;;;;;;9.00;4.60;;;;;;;11.03;76.08;102075.78;5063030;28;20544;-45
2022/03/14 06:30:14;;;;;;;8.10;3.15;;;;;;;11.04;76.20;102081.03;5070761;28;20648;-46
2022/03/14 06:32:43;;;;;;;10.07;5.25;;;;;;;10.97;77.16;102082.22;5071051;28;20047;-42
2022/03/14 06:35:14;;;;;;;9.85;5.60;;;;;;;10.93;77.23;102089.22;5036848;28;20138;-43
2022/03/14 06:37:43;;;;;;;12.63;5.80;;;;;;;10.87;77.78;102094.56;5061858;28;20415;-42
2022/03/14 06:40:12;;;;;;;9.45;5.57;;;;;;;10.90;77.52;102092.44;5033714;28;20041;-43
2022/03/14 06:42:42;;;;;;;13.20;6.07;;;;;;;10.88;78.09;102095.38;5051897;28;20048;-43
2022/03/14 06:45:11;;;;;;;11.75;5.32;;;;;;;10.98;77.06;102106.50;5070994;28;20064;-43
2022/03/14 06:47:39;;;;;;;10.30;5.10;;;;;;;11.01;76.91;102103.28;5069280;28;20044;-46
2022/03/14 06:50:10;;;;;;;10.32;5.60;;;;;;;11.00;77.23;102104.38;5067349;28;20056;-46
2022/03/14 06:52:41;;;;;;;6.72;3.60;;;;;;;11.12;76.38;102112.53;5050735;28;20484;-44
2022/03/14 06:55:10;;;;;;;10.32;5.88;;;;;;;11.10;76.36;102111.94;5050930;28;20053;-43
2022/03/14 06:57:39;;;;;;;10.70;5.95;;;;;;;11.06;77.01;102125.25;5052167;28;20060;-46
2022/03/14 07:00:08;;;;;;;10.30;5.90;;;;;;;11.03;77.20;102125.72;5064008;28;20044;-47
2022/03/14 07:02:39;;;;;;;13.95;5.97;;;;;;;11.05;77.02;102120.84;5058951;28;20084;-48
2022/03/14 07:05:13;;;;;;;11.93;6.40;;;;;;;11.02;76.73;102129.50;5033229;28;20102;-46
2022/03/14 07:07:41;;;;;;;10.43;4.75;;;;;;;11.05;77.14;102128.22;5055594;28;20093;-51
2022/03/14 07:10:09;;;;;;;9.13;5.20;;;;;;;11.05;76.88;102131.75;5064158;28;20059;-47
2022/03/14 07:12:42;;;;;;;6.57;3.80;;;;;;;11.07;76.92;102129.63;5032423;28;20047;-49
2022/03/14 07:15:11;;;;;;;12.05;6.47;;;;;;;11.06;77.01;102136.16;5050146;28;20530;-47
2022/03/14 07:17:42;;;;;;;14.75;7.72;;;;;;;11.08;77.23;102144.91;5018418;28;20124;-46
2022/03/14 07:20:11;;;;;;;14.68;6.00;;;;;;;11.23;77.36;102146.31;5068249;28;20156;-48
2022/03/14 07:23:08;;;;;;;13.43;7.53;;;;;;;11.25;76.01;102144.19;5051852;28;20053;-46
2022/03/14 07:25:37;;;;;;;12.07;6.50;;;;;;;11.19;76.34;102148.72;5053643;28;20052;-47
2022/03/14 07:28:09;;;;;;;13.95;7.55;;;;;;;11.20;76.54;102152.25;5048329;28;20045;-42
2022/03/14 07:30:40;;;;;;;13.82;7.18;;;;;;;11.21;76.15;102149.31;5032647;28;20110;-43
2022/03/14 07:33:08;;;;;;;12.73;7.50;;;;;;;11.20;76.58;102149.53;5032367;28;20047;-45
2022/03/14 07:35:36;;;;;;;12.73;7.63;;;;;;;11.15;76.64;102149.44;5060239;28;20048;-43
2022/03/14 07:38:04;;;;;;;15.55;8.32;;;;;;;11.14;76.36;102147.78;5066884;28;20505;-47
2022/03/14 07:40:32;;;;;;;14.25;8.13;;;;;;;11.17;76.88;102153.56;5028394;28;20575;-46
2022/03/14 07:43:01;;;;;;;18.05;8.43;;;;;;;11.11;76.49;102164.59;5017302;28;20047;-43
2022/03/14 07:45:32;;;;;;;16.73;8.55;;;;;;;11.02;77.09;102166.88;5069564;28;20098;-42
2022/03/14 07:48:06;;;;;;;13.95;8.95;;;;;;;10.98;77.10;102163.78;5071124;28;20045;-46
2022/03/14 07:50:34;;;;;;;19.45;9.35;;;;;;;10.94;77.54;102168.03;5060670;28;20061;-45
2022/03/14 07:53:03;;;;;;;16.08;9.75;;;;;;;10.92;78.31;102177.53;5072971;28;20487;-44
2022/03/14 07:55:31;;;;;;;15.80;10.27;;;;;;;10.87;77.95;102176.38;5055360;28;20120;-43
2022/03/14 07:57:58;;;;;;;17.20;10.02;;;;;;;10.87;77.93;102175.50;5072894;28;20089;-45
2022/03/14 08:00:26;;;;;;;15.43;10.23;;;;;;;10.83;78.27;102185.25;5070989;28;20119;-45
2022/03/14 08:02:55;;;;;;;16.08;9.40;;;;;;;10.89;78.43;102192.47;5072526;28;20499;-44
2022/03/14 08:05:26;;;;;;;17.77;10.15;;;;;;;10.94;77.41;102191.75;5072772;28;20052;-48
2022/03/14 08:07:55;;;;;;;19.70;9.27;;;;;;;10.97;78.01;102194.03;5073032;28;20108;-41
2022/03/14 08:10:23;;;;;;;16.50;9.68;;;;;;;10.97;77.78;102197.59;5058373;28;20049;-42
2022/03/14 08:12:53;;;;;;;18.75;10.48;;;;;;;10.95;77.48;102205.16;5052755;28;20048;-43
2022/03/14 08:15:21;;;;;;;17.77;10.50;;;;;;;10.95;77.28;102212.53;5035129;28;20053;-48
2022/03/14 08:17:50;;;;;;;17.75;11.10;;;;;;;10.95;77.48;102216.06;5052884;28;20139;-47
2022/03/14 08:20:19;;;;;;;17.48;11.50;;;;;;;10.96;77.15;102215.00;5053596;28;20047;-45
2022/03/14 08:22:47;;;;;;;16.83;11.02;;;;;;;10.97;77.31;102218.56;5035423;28;20052;-45
2022/03/14 08:25:15;;;;;;;18.80;10.23;;;;;;;10.97;77.22;102224.03;5052611;28;20115;-49
2022/03/14 08:27:42;;;;;;;18.63;10.75;;;;;;;10.95;77.48;102228.88;5052753;28;20041;-46
2022/03/14 08:30:11;;;;;;;16.20;10.15;;;;;;;10.96;77.75;102234.09;5036217;28;20450;-47
2022/03/14 08:32:42;;;;;;;18.13;11.30;;;;;;;10.95;77.36;102231.63;5019455;28;20133;-48
2022/03/14 08:35:11;;;;;;;17.90;11.25;;;;;;;10.91;78.00;102242.16;5037539;28;20067;-48
2022/03/14 08:37:43;;;;;;;17.45;11.18;;;;;;;10.97;77.21;102234.94;5056441;28;20094;-50
2022/03/14 08:40:13;;;;;;;15.80;11.48;;;;;;;10.97;77.40;102252.13;5056562;28;20053;-48
2022/03/14 08:42:42;;;;;;;21.08;10.60;;;;;;;10.98;77.14;102261.13;5054615;28;20583;-47
2022/03/14 08:45:11;;;;;;;17.77;11.75;;;;;;;10.97;77.03;102263.03;5038064;28;20056;-48
2022/03/14 08:47:39;;;;;;;15.68;11.20;;;;;;;10.98;77.54;102266.59;5038041;28;20422;-47
2022/03/14 08:50:08;;;;;;;18.30;10.57;;;;;;;11.00;77.40;102276.19;5055751;28;20040;-46
2022/03/14 08:52:37;;;;;;;18.30;12.07;;;;;;;11.00;76.97;102272.66;5048960;28;20040;-48
2022/03/14 08:55:06;;;;;;;17.63;10.93;;;;;;;10.99;76.86;102281.88;5055654;28;20053;-44
2022/03/14 08:57:39;;;;;;;17.33;11.18;;;;;;;10.97;76.94;102281.31;5055800;28;20041;-45
2022/03/14 09:00:07;;;;;;;19.67;11.45;;;;;;;11.01;76.99;102285.19;5055806;28;20483;-48
2022/03/14 09:02:36;;;;;;;17.15;11.93;;;;;;;11.00;76.69;102289.84;5066174;28;20469;-48
2022/03/14 09:05:04;;;;;;;21.70;12.63;;;;;;;11.00;76.83;102294.47;5057801;28;20426;-49
2022/03/14 09:07:32;;;;;;;19.15;11.93;;;;;;;10.97;76.88;102295.75;5057928;28;20048;-47
2022/03/14 09:10:17;;;;;;;16.30;11.70;;;;;;;10.95;77.48;102300.63;5053888;28;20053;-47
2022/03/14 09:12:49;;;;;;;19.13;12.27;;;;;;;10.97;77.09;102300.41;5048878;28;20096;-43
2022/03/14 09:15:18;;;;;;;17.65;10.52;;;;;;;11.01;77.69;102305.13;5034286;28;20049;-44
2022/03/14 09:17:46;;;;;;;21.45;8.70;;;;;;;11.09;77.56;102312.16;5035209;28;20514;-47
2022/03/14 09:20:15;;;;;;;20.15;11.23;;;;;;;11.09;77.45;102318.44;5035295;28;20496;-49
2022/03/14 09:22:45;;;;;;;19.63;11.30;;;;;;;11.08;76.89;102322.22;5038348;28;20048;-46
2022/03/14 09:25:14;;;;;;;18.10;11.82;;;;;;;11.08;76.74;102319.47;5055360;28;20120;-46
2022/03/14 09:27:43;;;;;;;21.63;11.73;;;;;;;11.08;76.01;102318.66;5055160;28;20492;-47
2022/03/14 09:30:12;;;;;;;16.75;11.18;;;;;;;11.07;75.91;102323.28;5055273;28;20147;-46
2022/03/14 09:32:41;;;;;;;22.75;12.45;;;;;;;11.12;76.11;102329.94;5050672;28;20042;-46
2022/03/14 09:35:10;;;;;;;21.15;12.77;;;;;;;11.15;75.68;102332.19;5035616;28;20049;-48
2022/03/14 09:37:39;;;;;;;18.50;13.27;;;;;;;11.12;76.34;102344.41;5033911;28;20092;-47
2022/03/14 09:40:08;;;;;;;19.58;12.68;;;;;;;11.19;76.41;102347.03;5033909;28;20037;-46
2022/03/14 09:42:39;;;;;;;20.40;13.05;;;;;;;11.18;76.14;102356.28;5036385;28;20492;-45
2022/03/14 09:45:09;;;;;;;21.73;12.35;;;;;;;11.15;76.42;102359.47;5034951;28;20049;-48
2022/03/14 09:47:44;;;;;;;21.27;12.80;;;;;;;11.09;76.55;102359.34;5035112;28;20095;-45
2022/03/14 09:50:14;;;;;;;19.40;11.98;;;;;;;11.02;76.37;102364.06;5034746;28;20491;-43
2022/03/14 09:52:44;;;;;;;20.83;11.07;;;;;;;11.00;76.53;102371.66;5046446;28;20041;-46
2022/03/14 09:55:12;;;;;;;18.73;10.63;;;;;;;10.97;76.80;102376.75;5053403;28;20101;-45
2022/03/14 09:57:41;;;;;;;16.65;10.90;;;;;;;10.94;76.78;102378.03;5054584;28;20068;-47
2022/03/14 10:00:13;;;;;;;17.65;10.63;;;;;;;10.97;77.39;102383.03;5053977;28;20059;-46
2022/03/14 10:02:42;;;;;;;17.20;9.90;;;;;;;11.02;77.32;102385.91;5053087;28;20064;-48
2022/03/14 10:05:14;;;;;;;18.85;10.77;;;;;;;11.06;77.03;102387.09;5036795;28;20068;-47
2022/03/14 10:07:43;;;;;;;18.83;10.15;;;;;;;11.11;76.85;102388.28;5053350;28;20099;-47
2022/03/14 10:10:13;;;;;;;16.77;10.13;;;;;;;11.19;76.26;102393.41;5036857;28;20132;-43
2022/03/14 10:12:45;;;;;;;18.10;9.98;;;;;;;11.23;76.18;102390.00;5040664;28;20075;-47
2022/03/14 10:15:13;;;;;;;15.80;9.40;;;;;;;11.26;76.08;102391.41;5034614;28;20042;-49
2022/03/14 10:17:41;;;;;;;17.20;8.88;;;;;;;11.25;75.61;102396.03;5034304;28;20400;-47
2022/03/14 10:20:09;;;;;;;19.83;9.20;;;;;;;11.25;76.11;102392.47;5049432;28;20045;-45
2022/03/14 10:22:39;;;;;;;15.95;8.40;;;;;;;11.27;76.03;102393.06;5043581;28;20055;-47
2022/03/14 10:25:12;;;;;;;22.63;8.68;;;;;;;11.29;75.22;102399.13;5054522;28;20367;-47
2022/03/14 10:27:57;;;;;;;15.45;8.27;;;;;;;11.30;75.45;102404.38;5054320;28;20469;-43
2022/03/14 10:30:30;;;;;;;16.77;8.45;;;;;;;11.34;74.85;102399.25;5054341;28;20080;-47
2022/03/14 10:33:14;;;;;;;14.82;8.10;;;;;;;11.38;74.96;102403.19;5037667;28;20049;-48
2022/03/14 10:35:44;;;;;;;17.13;8.68;;;;;;;11.40;74.46;102420.16;5040327;28;20037;-45
2022/03/14 10:38:13;;;;;;;17.55;8.77;;;;;;;11.42;74.24;102412.53;5053908;28;20037;-48
2022/03/14 10:40:43;;;;;;;17.75;8.93;;;;;;;11.44;75.03;102420.50;5052703;28;20047;-48
2022/03/14 10:43:27;;;;;;;15.85;8.57;;;;;;;11.48;74.75;102424.44;5037887;28;20466;-46
2022/03/14 10:45:56;;;;;;;17.52;9.30;;;;;;;11.56;73.38;102420.53;5051085;28;20119;-47
2022/03/14 10:48:45;;;;;;;14.57;9.15;;;;;;;11.56;74.40;102423.25;5052395;28;20361;-45
2022/03/14 10:51:18;;;;;;;14.75;8.63;;;;;;;11.53;73.00;102424.56;5046889;28;20148;-46
2022/03/14 10:53:47;;;;;;;17.70;9.70;;;;;;;11.48;73.64;102416.25;5044152;28;20099;-48
2022/03/14 10:56:17;;;;;;;17.83;9.38;;;;;;;11.48;72.82;102424.44;5052097;28;20091;-48
2022/03/14 10:58:44;;;;;;;16.00;8.27;;;;;;;11.45;72.12;102424.91;5051980;28;20488;-46
2022/03/14 11:01:14;;;;;;;14.95;7.65;;;;;;;11.47;72.02;102426.34;5050472;28;20045;-46
2022/03/14 11:03:45;;;;;;;13.80;5.63;;;;;;;11.60;71.88;102421.72;5046008;28;20044;-46
2022/03/14 11:06:14;;;;;;;14.32;7.15;;;;;;;11.70;71.71;102419.25;5033573;28;20068;-47
2022/03/14 11:08:47;;;;;;;14.52;5.85;;;;;;;12.03;73.27;102431.53;5033698;28;20049;-46
2022/03/14 11:11:24;;;;;;;12.73;6.05;;;;;;;12.06;70.43;102425.56;5056034;28;20048;-48
2022/03/14 11:13:55;;;;;;;17.60;6.15;;;;;;;12.06;70.28;102429.13;5072528;28;20368;-50
2022/03/14 11:16:28;;;;;;;13.77;5.95;;;;;;;12.08;69.21;102428.91;5049411;28;20048;-48
2022/03/14 11:18:57;;;;;;;13.30;5.88;;;;;;;12.00;69.50;102431.97;5056397;28;20055;-45
2022/03/14 11:21:31;;;;;;;12.05;6.60;;;;;;;12.04;69.87;102430.44;5054357;28;20032;-42
2022/03/14 11:24:00;;;;;;;14.57;5.78;;;;;;;12.23;71.03;102431.16;5068634;28;20521;-48
2022/03/14 11:26:28;;;;;;;14.23;6.65;;;;;;;12.24;70.17;102441.84;5053096;28;20132;-48
2022/03/14 11:28:56;;;;;;;13.75;5.43;;;;;;;12.13;69.05;102439.94;5058328;28;20043;-47